Time;durP1;ratioP1;P1;durP2;ratioP2;P2;SDS_P1;SDS_P2;PMS_P1;PMS_P2;Temp;Humidity;BMP_temperature;BMP_pressure;BME280_temperature;BME280_humidity;BME280_pressure;Samples;Min_cycle;Max_cycle;Signal;HPM_P1;HPM_P2
2022/08/23 00:00:11;;;;;;;7.40;4.00;;;20.80;59.30;;;;;;5078785;28;20465;-76
2022/08/23 00:02:42;;;;;;;6.10;4.20;;;20.80;59.30;;;;;;5073777;28;20457;-77
2022/08/23 00:05:12;;;;;;;6.97;3.30;;;20.80;59.30;;;;;;5073357;28;20469;-75
2022/08/23 00:07:45;;;;;;;7.47;3.20;;;20.80;59.20;;;;;;5073501;28;20500;-78
2022/08/23 00:10:17;;;;;;;8.27;4.30;;;20.80;59.10;;;;;;5078188;28;21032;-75
2022/08/23 00:12:46;;;;;;;5.90;3.33;;;20.80;59.10;;;;;;5073324;28;20581;-76
2022/08/23 00:15:19;;;;;;;7.30;3.87;;;20.70;59.20;;;;;;5075513;28;20516;-77
2022/08/23 00:17:49;;;;;;;8.30;3.20;;;20.70;59.30;;;;;;5073578;28;20456;-75
2022/08/23 00:20:21;;;;;;;5.60;2.73;;;20.70;59.40;;;;;;5074311;28;20562;-75
2022/08/23 00:22:53;;;;;;;5.87;3.00;;;20.80;59.50;;;;;;5075784;28;20474;-76
2022/08/23 00:25:24;;;;;;;8.13;3.83;;;20.80;59.50;;;;;;5077287;28;20478;-76
2022/08/23 00:27:58;;;;;;;5.97;3.33;;;20.80;59.60;;;;;;5081466;28;20557;-76
2022/08/23 00:30:27;;;;;;;5.90;3.70;;;20.80;59.70;;;;;;5083400;28;20451;-76
2022/08/23 00:33:01;;;;;;;6.50;3.30;;;20.80;59.60;;;;;;5082892;28;20537;-77
2022/08/23 00:35:33;;;;;;;5.70;3.10;;;20.80;59.70;;;;;;5078645;28;21068;-76
2022/08/23 00:38:02;;;;;;;10.17;4.07;;;20.80;59.70;;;;;;5078269;28;20984;-76
2022/08/23 00:40:56;;;;;;;8.93;4.20;;;20.70;59.80;;;;;;5080181;28;20463;-77
2022/08/23 00:49:22;;;;;;;9.77;4.17;;;20.40;60.20;;;;;;5080157;28;20444;-76
2022/08/23 00:52:01;;;;;;;7.10;3.43;;;20.20;60.40;;;;;;5078942;28;20460;-75
2022/08/23 00:54:34;;;;;;;7.10;4.37;;;20.10;60.60;;;;;;5080702;28;20558;-75
2022/08/23 00:57:08;;;;;;;6.23;3.67;;;20.00;60.80;;;;;;5075805;28;20481;-74
2022/08/23 00:59:40;;;;;;;8.20;4.43;;;19.90;61.10;;;;;;5077802;28;20459;-76
2022/08/23 01:02:11;;;;;;;8.43;4.27;;;19.90;61.20;;;;;;5058522;28;20488;-76
2022/08/23 01:04:47;;;;;;;6.43;4.10;;;19.80;61.40;;;;;;5080419;28;20441;-77
2022/08/23 01:07:28;;;;;;;7.70;3.90;;;19.70;61.70;;;;;;5078758;28;20511;-76
2022/08/23 01:10:01;;;;;;;7.97;4.00;;;19.60;61.90;;;;;;5091437;28;20456;-74
2022/08/23 01:12:37;;;;;;;6.97;4.33;;;19.50;62.20;;;;;;5080159;28;20459;-76
2022/08/23 01:15:16;;;;;;;7.40;4.30;;;19.40;62.50;;;;;;5057028;28;20464;-76
2022/08/23 01:17:51;;;;;;;9.13;4.57;;;19.30;62.50;;;;;;5073510;28;20707;-74
2022/08/23 01:20:30;;;;;;;10.63;5.07;;;19.30;62.80;;;;;;5083372;28;20472;-77
2022/08/23 01:23:21;;;;;;;9.53;4.93;;;19.20;63.00;;;;;;5078383;28;21241;-75
2022/08/23 01:25:51;;;;;;;7.50;4.23;;;19.20;63.10;;;;;;5076953;28;20991;-75
2022/08/23 01:28:21;;;;;;;8.60;4.80;;;19.20;63.30;;;;;;5094088;28;20471;-74
2022/08/23 01:30:50;;;;;;;8.53;4.63;;;19.10;63.80;;;;;;5077213;28;20956;-75
2022/08/23 01:33:23;;;;;;;8.73;5.23;;;19.00;63.80;;;;;;5061242;28;20493;-77
2022/08/23 01:35:56;;;;;;;9.67;5.17;;;19.00;64.20;;;;;;5063663;28;20602;-76
2022/08/23 01:38:29;;;;;;;8.00;4.67;;;18.90;64.40;;;;;;5089037;28;20459;-76
2022/08/23 01:41:05;;;;;;;7.93;4.50;;;18.90;64.60;;;;;;5060948;28;20468;-76
2022/08/23 01:43:39;;;;;;;6.47;4.30;;;18.80;64.60;;;;;;5059096;28;20462;-76
2022/08/23 01:46:12;;;;;;;7.93;5.10;;;18.80;65.00;;;;;;5066326;28;21039;-76
2022/08/23 01:48:46;;;;;;;10.50;5.00;;;18.90;65.00;;;;;;5093763;28;20476;-76
2022/08/23 01:51:21;;;;;;;6.60;4.93;;;18.90;65.10;;;;;;5061863;28;21155;-76
2022/08/23 01:53:53;;;;;;;8.57;5.00;;;18.90;65.30;;;;;;5060830;28;20477;-76
2022/08/23 01:56:29;;;;;;;8.80;4.90;;;18.90;65.10;;;;;;5090424;28;20545;-76
2022/08/23 01:59:12;;;;;;;8.50;5.23;;;18.90;65.20;;;;;;5064878;28;20558;-77
2022/08/23 02:01:51;;;;;;;8.57;4.77;;;18.90;65.40;;;;;;5056235;28;20953;-76
2022/08/23 02:04:21;;;;;;;8.70;4.90;;;19.00;65.40;;;;;;5060733;28;20879;-76
2022/08/23 02:06:55;;;;;;;8.33;5.17;;;19.00;65.60;;;;;;5060495;28;20492;-78
2022/08/23 02:09:26;;;;;;;8.90;5.10;;;19.10;65.70;;;;;;5058823;28;20477;-76
2022/08/23 02:12:02;;;;;;;7.50;4.70;;;19.30;65.60;;;;;;5062385;28;20520;-77
2022/08/23 02:14:40;;;;;;;6.50;4.93;;;19.40;65.60;;;;;;5066976;28;20481;-78
2022/08/23 02:17:20;;;;;;;6.50;4.47;;;19.50;65.50;;;;;;5068200;28;20503;-76
2022/08/23 02:19:54;;;;;;;9.20;5.00;;;19.60;65.30;;;;;;5058901;28;20449;-77
2022/08/23 02:22:25;;;;;;;8.80;5.07;;;19.60;65.10;;;;;;5064740;28;20602;-77
2022/08/23 02:25:01;;;;;;;11.00;5.10;;;19.70;65.00;;;;;;5085628;28;20449;-77
2022/08/23 02:27:30;;;;;;;9.07;5.00;;;19.70;64.80;;;;;;5064950;28;20476;-77
2022/08/23 02:29:59;;;;;;;8.27;4.50;;;19.70;64.70;;;;;;5099323;28;20476;-76
2022/08/23 02:32:33;;;;;;;7.33;4.90;;;19.70;64.60;;;;;;5077386;28;20555;-77
2022/08/23 02:35:05;;;;;;;8.63;4.60;;;19.60;64.50;;;;;;5072018;28;20823;-77
2022/08/23 02:37:36;;;;;;;10.37;5.03;;;19.60;64.50;;;;;;5082021;28;20456;-77
2022/08/23 02:40:09;;;;;;;7.30;4.63;;;19.60;64.50;;;;;;5083550;28;20451;-76
2022/08/23 02:42:42;;;;;;;10.13;5.00;;;19.60;64.60;;;;;;5059638;28;20455;-76
2022/08/23 02:45:16;;;;;;;7.23;4.00;;;19.60;64.50;;;;;;5060020;28;20540;-76
2022/08/23 02:47:48;;;;;;;9.17;4.70;;;19.60;64.40;;;;;;5065603;28;20571;-76
2022/08/23 02:50:25;;;;;;;6.10;4.70;;;19.50;64.50;;;;;;5064846;28;20460;-76
2022/08/23 02:52:56;;;;;;;7.23;4.67;;;19.50;64.40;;;;;;5060701;28;20552;-76
2022/08/23 02:55:28;;;;;;;7.60;5.10;;;19.40;64.40;;;;;;5061039;28;20479;-76
2022/08/23 02:58:00;;;;;;;9.23;5.10;;;19.40;64.40;;;;;;5074980;28;20468;-76
2022/08/23 03:00:30;;;;;;;8.53;5.00;;;19.30;64.40;;;;;;5077751;28;20459;-76
2022/08/23 03:02:59;;;;;;;7.20;4.70;;;19.30;64.40;;;;;;5080199;28;20518;-77
2022/08/23 03:05:32;;;;;;;8.33;5.20;;;19.30;64.50;;;;;;5061616;28;20480;-77
2022/08/23 03:08:04;;;;;;;7.60;5.60;;;19.30;64.50;;;;;;5062412;28;20530;-77
2022/08/23 03:10:44;;;;;;;7.47;4.83;;;19.30;64.50;;;;;;5063546;28;20455;-77
2022/08/23 03:13:15;;;;;;;7.50;5.47;;;19.30;64.60;;;;;;5072453;28;20573;-77
2022/08/23 03:15:49;;;;;;;8.80;4.47;;;19.30;64.60;;;;;;5088754;28;20474;-75
2022/08/23 03:18:23;;;;;;;8.60;5.30;;;19.20;64.60;;;;;;5062804;28;20480;-75
2022/08/23 03:20:58;;;;;;;8.63;5.20;;;19.20;64.60;;;;;;5058847;28;20538;-75
2022/08/23 03:23:28;;;;;;;7.87;5.00;;;19.20;64.70;;;;;;5059641;28;20976;-76
2022/08/23 03:26:01;;;;;;;9.10;5.00;;;19.20;64.80;;;;;;5062286;28;20490;-78
2022/08/23 03:28:37;;;;;;;6.83;4.90;;;19.20;64.80;;;;;;5075357;28;20563;-77
2022/08/23 03:31:12;;;;;;;7.07;4.60;;;19.20;64.70;;;;;;5060576;28;20469;-76
2022/08/23 03:33:59;;;;;;;8.80;5.57;;;19.10;64.70;;;;;;5060524;28;20472;-77
2022/08/23 03:36:28;;;;;;;8.20;5.20;;;19.10;64.60;;;;;;5079219;28;20514;-77
2022/08/23 03:38:59;;;;;;;8.70;5.17;;;19.10;64.70;;;;;;5062716;28;20458;-74
2022/08/23 03:41:31;;;;;;;10.87;5.00;;;19.00;64.70;;;;;;5065675;28;20462;-76
2022/08/23 03:44:00;;;;;;;11.80;5.03;;;19.00;64.80;;;;;;5075141;28;20474;-75
2022/08/23 03:46:32;;;;;;;11.53;5.40;;;19.00;65.00;;;;;;5060993;28;20513;-77
2022/08/23 03:49:03;;;;;;;6.93;4.67;;;19.00;65.00;;;;;;5058579;28;20462;-77
2022/08/23 03:51:45;;;;;;;8.10;5.13;;;19.00;64.90;;;;;;5059626;28;20485;-76
2022/08/23 03:54:20;;;;;;;7.80;4.90;;;18.90;64.60;;;;;;5057990;28;20521;-77
2022/08/23 03:56:59;;;;;;;7.13;4.47;;;18.80;64.60;;;;;;5060705;28;20491;-75
2022/08/23 03:59:33;;;;;;;9.10;5.20;;;18.80;64.70;;;;;;5061736;28;21007;-77
2022/08/23 04:02:05;;;;;;;11.00;5.90;;;18.80;64.70;;;;;;5057793;28;21003;-77
2022/08/23 04:04:37;;;;;;;13.70;6.30;;;18.70;64.70;;;;;;5057698;28;20459;-77
2022/08/23 04:07:40;;;;;;;9.83;5.67;;;18.70;64.80;;;;;;5034863;28;20556;-76
2022/08/23 04:10:13;;;;;;;10.13;5.50;;;18.70;64.90;;;;;;5060123;28;20498;-76
2022/08/23 04:12:45;;;;;;;9.53;5.57;;;18.70;64.90;;;;;;5062998;28;21115;-76
2022/08/23 04:15:19;;;;;;;12.80;5.47;;;18.70;64.90;;;;;;5072782;28;20543;-75
2022/08/23 04:17:51;;;;;;;8.77;5.10;;;18.70;64.90;;;;;;5063073;28;20537;-76
2022/08/23 04:20:22;;;;;;;14.00;6.17;;;18.70;64.90;;;;;;5073351;28;20448;-76
2022/08/23 04:22:58;;;;;;;9.93;5.80;;;18.60;64.90;;;;;;5056024;28;20990;-76
2022/08/23 04:25:34;;;;;;;9.40;5.90;;;18.60;65.00;;;;;;5091040;28;20489;-76
2022/08/23 04:28:07;;;;;;;7.97;5.53;;;18.60;65.00;;;;;;5060316;28;20466;-76
2022/08/23 04:30:36;;;;;;;8.73;5.80;;;18.60;64.90;;;;;;5075080;28;20492;-76
2022/08/23 04:33:07;;;;;;;8.80;5.27;;;18.50;65.00;;;;;;5055602;28;20463;-76
2022/08/23 04:35:41;;;;;;;9.47;6.27;;;18.50;65.10;;;;;;5054647;28;20518;-76
2022/08/23 04:38:12;;;;;;;10.53;6.00;;;18.50;65.20;;;;;;5069333;28;20455;-76
2022/08/23 04:43:47;;;;;;;10.10;6.07;;;18.50;65.20;;;;;;5068335;28;20558;-76
2022/08/23 04:46:17;;;;;;;7.30;5.30;;;18.50;65.30;;;;;;5070993;28;20508;-76
2022/08/23 04:48:49;;;;;;;10.07;5.50;;;18.50;65.30;;;;;;5054997;28;20459;-77
2022/08/23 04:51:24;;;;;;;10.27;5.57;;;18.50;65.30;;;;;;5053720;28;20999;-76
2022/08/23 04:53:54;;;;;;;8.80;6.40;;;18.50;65.20;;;;;;5083064;28;20457;-78
2022/08/23 04:56:46;;;;;;;8.40;5.63;;;18.50;65.20;;;;;;5068205;28;20510;-76
2022/08/23 04:59:22;;;;;;;7.63;5.20;;;18.40;65.20;;;;;;5059026;28;20486;-77
2022/08/23 05:01:51;;;;;;;10.53;6.30;;;18.40;65.30;;;;;;5086119;28;20623;-77
2022/08/23 05:04:19;;;;;;;8.40;5.90;;;18.40;65.50;;;;;;5054711;28;21042;-77
2022/08/23 05:06:48;;;;;;;7.70;5.33;;;18.70;65.90;;;;;;5057343;28;21017;-77
2022/08/23 05:09:16;;;;;;;9.23;6.50;;;19.20;65.90;;;;;;5074420;28;20453;-76
2022/08/23 05:11:49;;;;;;;10.77;6.57;;;19.70;65.40;;;;;;5088468;28;20755;-77
2022/08/23 05:14:17;;;;;;;27.93;8.57;;;20.30;64.90;;;;;;5063847;28;20472;-77
2022/08/23 05:16:47;;;;;;;37.40;7.63;;;20.90;64.10;;;;;;5057201;28;20487;-77
2022/08/23 05:19:15;;;;;;;22.13;6.93;;;21.40;63.20;;;;;;5079236;28;20473;-74
2022/08/23 05:21:44;;;;;;;12.07;5.73;;;21.80;62.60;;;;;;5061059;28;20470;-77
2022/08/23 05:24:13;;;;;;;11.40;6.10;;;22.30;62.20;;;;;;5063414;28;20465;-77
2022/08/23 05:26:44;;;;;;;12.70;6.90;;;22.70;61.60;;;;;;5058517;28;20612;-76
2022/08/23 05:29:12;;;;;;;14.17;7.00;;;23.20;60.90;;;;;;5063161;28;20460;-76
2022/08/23 05:31:45;;;;;;;10.80;6.67;;;23.60;60.50;;;;;;5061291;28;20462;-78
2022/08/23 05:34:17;;;;;;;10.77;6.63;;;24.20;60.00;;;;;;5064080;28;20557;-76
2022/08/23 05:36:53;;;;;;;17.53;7.40;;;24.80;59.50;;;;;;5059513;28;20506;-75
2022/08/23 05:39:38;;;;;;;9.90;6.80;;;25.60;58.70;;;;;;5062098;28;20458;-77
2022/08/23 05:42:08;;;;;;;16.27;7.10;;;26.40;57.70;;;;;;5061748;28;20472;-77
2022/08/23 05:44:37;;;;;;;9.93;6.93;;;27.10;56.60;;;;;;5074218;28;20452;-76
2022/08/23 05:47:09;;;;;;;8.50;6.00;;;27.70;55.70;;;;;;5089703;28;20546;-77
2022/08/23 05:50:06;;;;;;;7.60;5.20;;;28.30;54.60;;;;;;5047662;28;20613;-77
2022/08/23 05:52:37;;;;;;;17.00;6.10;;;28.40;52.80;;;;;;5056814;28;20545;-77
2022/08/23 05:55:06;;;;;;;22.90;6.17;;;27.60;52.20;;;;;;5060643;28;20461;-77
2022/08/23 05:57:40;;;;;;;15.40;7.00;;;26.50;52.60;;;;;;5075245;28;20865;-77
2022/08/23 06:00:12;;;;;;;10.70;6.50;;;25.30;53.50;;;;;;5077274;28;21009;-77
2022/08/23 06:02:46;;;;;;;10.80;6.60;;;24.40;54.50;;;;;;5062004;28;20922;-76
2022/08/23 06:05:16;;;;;;;13.87;6.93;;;23.60;55.40;;;;;;5056984;28;20458;-77
2022/08/23 06:07:45;;;;;;;21.57;7.03;;;23.00;56.30;;;;;;5059308;28;20489;-78
2022/08/23 06:10:16;;;;;;;17.00;7.03;;;22.40;57.10;;;;;;5058352;28;20539;-77
2022/08/23 06:12:50;;;;;;;17.27;6.40;;;22.00;57.80;;;;;;5060241;28;20979;-77
2022/08/23 06:15:19;;;;;;;36.57;7.60;;;21.70;58.50;;;;;;5055986;28;20751;-78
2022/08/23 06:17:47;;;;;;;21.57;6.77;;;21.50;59.20;;;;;;5077862;28;20451;-77
2022/08/23 06:20:16;;;;;;;25.37;6.50;;;21.30;59.70;;;;;;5059827;28;20454;-78
2022/08/23 06:23:00;;;;;;;23.13;7.10;;;21.20;60.20;;;;;;5076436;28;20840;-78
2022/08/23 06:25:28;;;;;;;16.93;6.50;;;21.10;60.60;;;;;;5064466;28;20994;-78
2022/08/23 06:28:06;;;;;;;17.30;6.63;;;21.00;60.90;;;;;;5065565;28;20547;-75
2022/08/23 06:30:38;;;;;;;15.03;6.50;;;20.90;61.30;;;;;;5060864;28;20508;-75
2022/08/23 06:33:27;;;;;;;11.80;7.00;;;20.80;61.80;;;;;;5075151;28;20451;-75
2022/08/23 06:36:16;;;;;;;9.97;6.70;;;20.80;62.10;;;;;;5079209;28;20477;-75
2022/08/23 06:39:06;;;;;;;9.80;6.30;;;20.70;62.50;;;;;;5062506;28;21398;-76
2022/08/23 06:41:59;;;;;;;14.73;6.23;;;20.70;62.80;;;;;;5074611;28;21024;-75
2022/08/23 06:44:31;;;;;;;14.43;7.67;;;20.60;63.10;;;;;;5055732;28;20594;-75
2022/08/23 06:47:10;;;;;;;11.33;7.03;;;20.60;63.30;;;;;;5060249;28;20478;-76
2022/08/23 06:49:38;;;;;;;11.90;7.20;;;20.60;63.50;;;;;;5065591;28;20472;-75
2022/08/23 06:52:23;;;;;;;14.17;6.60;;;20.60;63.80;;;;;;5057718;28;20555;-76
2022/08/23 06:55:13;;;;;;;11.00;6.10;;;20.60;64.10;;;;;;5050697;28;20490;-77
2022/08/23 06:57:51;;;;;;;8.63;5.70;;;20.60;64.20;;;;;;5053326;28;20491;-75
2022/08/23 07:00:36;;;;;;;9.23;5.93;;;20.60;64.40;;;;;;5074357;28;21241;-75
2022/08/23 07:03:16;;;;;;;10.60;5.97;;;20.70;64.60;;;;;;5056097;28;20474;-75
2022/08/23 07:06:19;;;;;;;8.47;5.40;;;20.70;64.70;;;;;;5078311;28;21023;-76
2022/08/23 07:08:49;;;;;;;10.70;6.00;;;20.80;64.80;;;;;;5074892;28;20484;-75
2022/08/23 07:11:17;;;;;;;11.50;5.97;;;20.80;65.00;;;;;;5090862;28;20511;-76
2022/08/23 07:13:45;;;;;;;11.67;6.13;;;20.90;64.90;;;;;;5055944;28;21069;-76
2022/08/23 07:16:14;;;;;;;9.90;4.93;;;20.90;64.90;;;;;;5073966;28;20482;-76
2022/08/23 07:18:42;;;;;;;11.87;5.33;;;21.00;64.90;;;;;;5057762;28;20543;-75
2022/08/23 07:21:11;;;;;;;8.97;5.47;;;21.00;64.90;;;;;;5064144;28;20497;-75
2022/08/23 07:23:42;;;;;;;11.20;4.90;;;21.10;65.00;;;;;;5060525;28;20917;-75
2022/08/23 07:26:16;;;;;;;8.20;4.23;;;21.10;65.00;;;;;;5067038;28;20531;-75
2022/08/23 07:28:45;;;;;;;9.07;5.47;;;21.20;64.90;;;;;;5057923;28;21083;-75
2022/08/23 07:31:17;;;;;;;8.43;4.80;;;21.20;64.90;;;;;;5060143;28;21017;-76
2022/08/23 07:33:46;;;;;;;9.03;4.63;;;21.30;64.90;;;;;;5060840;28;20556;-76
2022/08/23 07:36:21;;;;;;;9.00;4.43;;;21.30;64.90;;;;;;5059648;28;20912;-76
2022/08/23 07:38:50;;;;;;;9.47;4.43;;;21.30;64.90;;;;;;5062368;28;20481;-75
2022/08/23 07:41:23;;;;;;;9.93;4.73;;;21.40;64.80;;;;;;5061089;28;20952;-75
2022/08/23 07:43:51;;;;;;;7.80;4.40;;;21.40;64.70;;;;;;5066011;28;20468;-75
2022/08/23 07:46:19;;;;;;;6.50;3.93;;;21.50;64.70;;;;;;5059211;28;20513;-75
2022/08/23 07:48:50;;;;;;;10.13;4.10;;;21.60;64.60;;;;;;5092014;28;20454;-75
2022/08/23 07:51:26;;;;;;;10.63;4.50;;;21.60;64.50;;;;;;5066002;28;20475;-76
2022/08/23 07:53:54;;;;;;;8.43;3.77;;;21.60;64.30;;;;;;5075513;28;20468;-76
2022/08/23 07:56:23;;;;;;;10.17;4.30;;;21.70;64.30;;;;;;5060074;28;20479;-75
2022/08/23 07:59:05;;;;;;;10.63;3.50;;;21.80;64.20;;;;;;5064712;28;20476;-76
2022/08/23 08:01:43;;;;;;;7.90;4.50;;;21.80;64.10;;;;;;5061011;28;20465;-76
2022/08/23 08:04:12;;;;;;;7.57;3.83;;;21.90;64.00;;;;;;5074091;28;20564;-75
2022/08/23 08:06:47;;;;;;;7.63;3.47;;;22.00;63.80;;;;;;5075519;28;20545;-75
2022/08/23 08:09:37;;;;;;;7.60;4.07;;;22.00;63.60;;;;;;5063244;28;20496;-76
2022/08/23 08:12:07;;;;;;;10.67;3.50;;;22.10;63.50;;;;;;5058651;28;20485;-75
2022/08/23 08:14:37;;;;;;;7.37;3.30;;;22.20;63.30;;;;;;5076590;28;20462;-76
2022/08/23 08:17:06;;;;;;;6.83;3.60;;;22.20;63.10;;;;;;5077030;28;20470;-76
2022/08/23 08:19:57;;;;;;;8.63;3.70;;;22.30;63.00;;;;;;5075584;28;20463;-75
2022/08/23 08:23:04;;;;;;;10.70;3.43;;;22.30;62.80;;;;;;5003369;28;20472;-74
2022/08/23 08:26:03;;;;;;;5.67;3.17;;;22.40;62.60;;;;;;5003153;28;20591;-76
2022/08/23 08:28:36;;;;;;;5.97;3.17;;;22.50;62.50;;;;;;5040658;28;20466;-75
2022/08/23 08:31:06;;;;;;;9.37;3.33;;;22.60;62.40;;;;;;5059113;28;20468;-75
2022/08/23 08:33:34;;;;;;;5.90;3.13;;;22.60;62.40;;;;;;5063397;28;20490;-75
2022/08/23 08:36:02;;;;;;;7.13;3.30;;;22.70;62.30;;;;;;5061983;28;20480;-76
2022/08/23 08:38:37;;;;;;;7.37;3.43;;;22.80;62.20;;;;;;5067279;28;20467;-75
2022/08/23 08:41:19;;;;;;;6.90;3.10;;;22.90;62.10;;;;;;5081626;28;20443;-76
2022/08/23 08:43:58;;;;;;;8.57;3.40;;;22.90;61.90;;;;;;5069404;28;20455;-76
2022/08/23 08:46:38;;;;;;;7.90;2.83;;;23.00;61.70;;;;;;5067374;28;20482;-76
2022/08/23 08:49:13;;;;;;;12.37;3.30;;;23.00;61.50;;;;;;5082930;28;20514;-75
2022/08/23 08:51:48;;;;;;;6.83;2.30;;;23.10;61.30;;;;;;5069903;28;20478;-76
2022/08/23 08:54:21;;;;;;;7.63;3.07;;;23.20;61.20;;;;;;5060987;28;20831;-76
2022/08/23 08:56:53;;;;;;;5.63;2.73;;;23.20;60.90;;;;;;5062273;28;20516;-74
2022/08/23 08:59:28;;;;;;;6.20;2.93;;;23.20;60.80;;;;;;5083174;28;20466;-76
2022/08/23 09:01:58;;;;;;;5.63;3.13;;;23.20;60.50;;;;;;5081137;28;20976;-75
2022/08/23 09:04:33;;;;;;;7.10;3.00;;;23.30;60.30;;;;;;5066283;28;20563;-75
2022/08/23 09:07:06;;;;;;;6.70;2.90;;;23.30;60.10;;;;;;5067520;28;20488;-76
2022/08/23 09:10:09;;;;;;;8.97;2.93;;;23.40;60.00;;;;;;5077809;28;20483;-76
2022/08/23 09:12:54;;;;;;;7.40;3.10;;;23.50;59.80;;;;;;5065464;28;20498;-75
2022/08/23 09:15:36;;;;;;;10.07;3.00;;;23.50;59.50;;;;;;5061631;28;20564;-76
2022/08/23 09:18:09;;;;;;;5.83;2.80;;;23.60;59.20;;;;;;5076353;28;20458;-76
2022/08/23 09:20:39;;;;;;;7.03;2.80;;;23.60;59.00;;;;;;5063140;28;20485;-75
2022/08/23 09:23:11;;;;;;;6.50;2.93;;;23.70;58.80;;;;;;5057428;28;20469;-75
2022/08/23 09:25:40;;;;;;;8.30;3.00;;;23.70;58.80;;;;;;5060709;28;20574;-74
2022/08/23 09:28:15;;;;;;;6.03;2.80;;;23.70;58.60;;;;;;5074657;28;20569;-75
2022/08/23 09:30:52;;;;;;;5.17;2.50;;;23.80;58.50;;;;;;5075989;28;21149;-75
2022/08/23 09:33:24;;;;;;;12.50;2.73;;;23.80;58.40;;;;;;5097128;28;20566;-76
2022/08/23 09:36:17;;;;;;;5.43;2.77;;;23.90;58.30;;;;;;5059160;28;20568;-75
2022/08/23 09:38:53;;;;;;;6.60;2.20;;;23.90;58.10;;;;;;5063838;28;20517;-75
2022/08/23 09:41:26;;;;;;;10.20;3.37;;;24.00;58.00;;;;;;5092279;28;20463;-75
2022/08/23 09:44:01;;;;;;;7.20;3.27;;;24.00;57.80;;;;;;5068784;28;20531;-75
2022/08/23 09:46:34;;;;;;;7.10;2.70;;;24.00;57.70;;;;;;5078562;28;20485;-75
2022/08/23 09:49:24;;;;;;;6.67;2.90;;;24.10;57.50;;;;;;5075326;28;20466;-75
2022/08/23 09:51:57;;;;;;;6.20;2.70;;;24.20;57.40;;;;;;5062720;28;20465;-75
2022/08/23 09:54:29;;;;;;;6.00;2.53;;;24.20;57.20;;;;;;5064598;28;20860;-73
2022/08/23 09:57:01;;;;;;;6.87;2.67;;;24.30;56.80;;;;;;5081994;28;21271;-75
2022/08/23 09:59:41;;;;;;;6.10;2.70;;;24.40;56.80;;;;;;5060838;28;20539;-75
2022/08/23 10:02:25;;;;;;;5.27;2.47;;;24.50;56.60;;;;;;5066065;28;20555;-75
2022/08/23 10:04:59;;;;;;;8.90;3.10;;;24.50;56.60;;;;;;5059169;28;20534;-75
2022/08/23 10:07:35;;;;;;;8.50;2.80;;;24.50;56.40;;;;;;5060810;28;20473;-76
2022/08/23 10:10:22;;;;;;;7.17;2.80;;;24.50;56.30;;;;;;5063452;28;20467;-75
2022/08/23 10:12:54;;;;;;;5.37;2.43;;;24.60;56.20;;;;;;5064588;28;20566;-75
2022/08/23 10:15:33;;;;;;;6.37;3.30;;;24.70;56.10;;;;;;5060211;28;20975;-75
2022/08/23 10:18:10;;;;;;;9.40;3.03;;;24.70;55.90;;;;;;5060426;28;20466;-75
2022/08/23 10:20:48;;;;;;;9.17;3.50;;;24.80;55.90;;;;;;5059324;28;20459;-74
2022/08/23 10:23:23;;;;;;;9.33;3.47;;;24.80;55.70;;;;;;5061435;28;20547;-75
2022/08/23 10:25:56;;;;;;;7.30;2.50;;;24.80;55.60;;;;;;5077104;28;20520;-74
2022/08/23 10:31:42;;;;;;;9.20;2.97;;;24.80;55.50;;;;;;5025440;28;20477;-75
2022/08/23 10:34:37;;;;;;;9.00;3.17;;;24.90;55.40;;;;;;5091460;28;21009;-75
2022/08/23 10:37:23;;;;;;;8.97;2.87;;;24.90;55.30;;;;;;5076623;28;21422;-76
2022/08/23 10:39:59;;;;;;;5.80;2.27;;;25.00;55.10;;;;;;5062587;28;20447;-75
2022/08/23 10:42:38;;;;;;;9.87;3.30;;;25.10;55.00;;;;;;5059360;28;20542;-75
2022/08/23 10:45:15;;;;;;;6.30;2.67;;;25.10;54.80;;;;;;5063349;28;20459;-76
2022/08/23 10:47:58;;;;;;;6.17;3.13;;;25.10;54.80;;;;;;5088417;28;20453;-75
2022/08/23 10:50:36;;;;;;;6.80;2.60;;;25.10;54.70;;;;;;5079438;28;20488;-75
2022/08/23 10:53:10;;;;;;;6.07;2.40;;;25.20;54.60;;;;;;5075165;28;20561;-75
2022/08/23 10:55:53;;;;;;;5.33;2.40;;;25.30;54.60;;;;;;5053501;28;20481;-74
2022/08/23 10:58:26;;;;;;;6.53;2.80;;;25.30;54.60;;;;;;5055796;28;20534;-74
2022/08/23 11:01:00;;;;;;;6.57;2.80;;;25.40;54.40;;;;;;5058646;28;20981;-75
2022/08/23 11:03:31;;;;;;;5.93;2.90;;;25.50;54.30;;;;;;5062493;28;20455;-75
2022/08/23 11:06:43;;;;;;;9.60;2.90;;;25.50;54.10;;;;;;5074063;28;20538;-75
2022/08/23 11:09:58;;;;;;;6.80;3.53;;;25.60;53.90;;;;;;5058289;28;20469;-74
2022/08/23 11:12:32;;;;;;;5.67;2.80;;;25.60;53.90;;;;;;4993204;28;20472;-75
2022/08/23 11:15:21;;;;;;;4.83;2.47;;;25.70;53.90;;;;;;5076971;27;20469;-75
2022/08/23 11:18:06;;;;;;;6.97;2.87;;;25.80;53.70;;;;;;5056679;28;20901;-75
2022/08/23 11:21:00;;;;;;;6.57;2.60;;;25.80;53.60;;;;;;5093214;28;20454;-76
2022/08/23 11:23:44;;;;;;;9.60;2.90;;;25.90;53.30;;;;;;5055561;28;20792;-74
2022/08/23 11:27:03;;;;;;;6.37;2.80;;;26.00;53.20;;;;;;5056605;28;20501;-75
2022/08/23 11:29:40;;;;;;;5.77;2.80;;;26.00;53.00;;;;;;5070337;28;20465;-74
2022/08/23 11:32:43;;;;;;;7.03;2.87;;;26.00;52.90;;;;;;5057275;28;20520;-74
2022/08/23 11:35:36;;;;;;;6.33;2.43;;;26.10;52.80;;;;;;5063136;28;20510;-76
2022/08/23 11:38:11;;;;;;;6.93;3.00;;;26.10;52.60;;;;;;5060965;28;20546;-76
2022/08/23 11:41:17;;;;;;;6.03;2.70;;;26.10;52.40;;;;;;5052422;28;20462;-75
2022/08/23 11:43:47;;;;;;;7.33;2.80;;;26.10;52.20;;;;;;5089985;27;20454;-75
2022/08/23 11:46:31;;;;;;;5.50;2.83;;;26.10;52.00;;;;;;5062676;28;20910;-75
2022/08/23 11:49:49;;;;;;;6.13;2.70;;;26.20;51.90;;;;;;5054638;28;20455;-75
2022/08/23 11:52:30;;;;;;;6.97;2.60;;;26.20;51.60;;;;;;5074130;28;20461;-75
2022/08/23 11:55:21;;;;;;;4.80;2.60;;;26.30;51.70;;;;;;5072815;28;20492;-75
2022/08/23 11:58:22;;;;;;;6.10;2.33;;;26.40;51.40;;;;;;5076707;28;20546;-75
2022/08/23 12:01:04;;;;;;;5.70;2.50;;;26.40;51.20;;;;;;5058410;28;20454;-75
2022/08/23 12:03:36;;;;;;;6.37;2.40;;;26.40;50.40;;;;;;5080070;28;20462;-75
2022/08/23 12:06:33;;;;;;;5.23;2.30;;;26.60;50.80;;;;;;5074084;28;20811;-75
2022/08/23 12:09:11;;;;;;;4.90;2.23;;;26.60;50.50;;;;;;5074293;28;20543;-74
2022/08/23 12:12:22;;;;;;;6.60;2.23;;;26.60;50.30;;;;;;5072732;28;20460;-75
2022/08/23 12:14:56;;;;;;;9.03;2.47;;;26.60;50.20;;;;;;5076520;28;20484;-75
2022/08/23 12:18:08;;;;;;;5.47;2.50;;;26.60;50.20;;;;;;5075160;28;20475;-75
2022/08/23 12:20:37;;;;;;;5.30;2.37;;;26.70;50.10;;;;;;4991406;28;20469;-75
2022/08/23 12:23:18;;;;;;;8.50;2.77;;;26.70;50.00;;;;;;4990608;28;20483;-75
2022/08/23 12:25:57;;;;;;;7.00;2.73;;;26.70;49.70;;;;;;5044872;28;20928;-75
2022/08/23 12:28:36;;;;;;;7.13;2.77;;;26.80;49.60;;;;;;5080318;28;20463;-75
2022/08/23 12:31:16;;;;;;;6.20;2.30;;;26.80;49.70;;;;;;5082258;28;20453;-75
2022/08/23 12:33:58;;;;;;;6.00;2.80;;;26.80;49.60;;;;;;5079893;28;20487;-76
2022/08/23 12:36:34;;;;;;;6.07;3.00;;;26.80;49.60;;;;;;5078207;28;20478;-75
2022/08/23 12:39:07;;;;;;;6.47;2.67;;;26.80;49.60;;;;;;5083876;28;20471;-76
2022/08/23 12:41:50;;;;;;;6.23;2.73;;;26.80;49.60;;;;;;5079647;28;21251;-75
2022/08/23 12:44:21;;;;;;;6.50;2.57;;;26.90;49.50;;;;;;5077472;28;20959;-74
2022/08/23 12:46:51;;;;;;;6.10;2.70;;;26.90;49.50;;;;;;5079718;28;20467;-75
2022/08/23 12:49:28;;;;;;;8.17;3.00;;;26.90;49.50;;;;;;5077247;28;20836;-76
2022/08/23 12:51:59;;;;;;;6.70;2.70;;;26.90;49.50;;;;;;5077718;28;20447;-75
2022/08/23 12:54:35;;;;;;;9.57;3.27;;;27.00;49.50;;;;;;5081149;28;20517;-75
2022/08/23 12:57:10;;;;;;;6.63;2.73;;;27.00;49.30;;;;;;5083940;28;20474;-76
2022/08/23 12:59:46;;;;;;;6.73;2.70;;;27.10;49.40;;;;;;5079185;28;20460;-74
2022/08/23 13:02:24;;;;;;;7.27;2.73;;;27.10;49.40;;;;;;5076494;28;21026;-73
2022/08/23 13:04:54;;;;;;;5.87;2.57;;;27.10;49.40;;;;;;5080187;28;20538;-74
2022/08/23 13:07:25;;;;;;;5.57;2.77;;;27.20;49.30;;;;;;5077041;28;20472;-74
2022/08/23 13:09:53;;;;;;;6.17;3.20;;;27.20;49.20;;;;;;5079970;28;20465;-74
2022/08/23 13:12:23;;;;;;;6.10;2.80;;;27.20;49.10;;;;;;5078324;28;20463;-75
2022/08/23 13:14:54;;;;;;;6.83;3.17;;;27.20;49.10;;;;;;5064579;28;20468;-75
2022/08/23 13:17:35;;;;;;;4.90;2.43;;;27.30;49.20;;;;;;5079820;28;20479;-72
2022/08/23 13:20:18;;;;;;;9.27;2.83;;;27.30;49.10;;;;;;5078140;28;20463;-75
2022/08/23 13:22:58;;;;;;;8.00;2.70;;;27.40;49.00;;;;;;5079910;28;20498;-75
2022/08/23 13:25:29;;;;;;;6.00;2.80;;;27.40;48.90;;;;;;5079929;28;21058;-75
2022/08/23 13:28:01;;;;;;;5.43;2.60;;;27.40;48.90;;;;;;5076379;28;20555;-75
2022/08/23 13:30:30;;;;;;;8.10;2.30;;;27.50;49.00;;;;;;5077515;28;20455;-75
2022/08/23 13:33:18;;;;;;;6.67;2.70;;;27.50;49.00;;;;;;5082518;28;20454;-75
2022/08/23 13:35:48;;;;;;;6.57;3.40;;;27.60;48.70;;;;;;5078207;28;20627;-75
2022/08/23 13:38:22;;;;;;;7.83;3.17;;;27.70;48.80;;;;;;5077305;28;20456;-76
2022/08/23 13:40:57;;;;;;;5.60;2.67;;;27.70;48.70;;;;;;5078960;28;20445;-75
2022/08/23 13:43:29;;;;;;;8.87;2.90;;;27.80;48.50;;;;;;5078007;28;20453;-74